createdAt,value
2022-11-16T00:00:29.856Z,12.16
2022-11-16T00:02:56.513Z,12.12
2022-11-16T00:05:28.023Z,12.24
2022-11-16T00:07:55.074Z,12.22
2022-11-16T00:10:21.784Z,12.34
2022-11-16T00:12:48.370Z,12.45
2022-11-16T00:15:15.016Z,12.21
2022-11-16T00:17:41.551Z,12.21
2022-11-16T00:20:08.841Z,12.33
2022-11-16T00:22:35.402Z,12.38
2022-11-16T00:25:02.051Z,12.24
2022-11-16T00:27:28.648Z,12.17
2022-11-16T00:29:55.594Z,12.31
2022-11-16T00:32:23.568Z,12.21
2022-11-16T00:34:52.293Z,12.20
2022-11-16T00:37:18.870Z,12.09
2022-11-16T00:39:47.612Z,12.10
2022-11-16T00:42:14.356Z,12.15
2022-11-16T00:44:41.003Z,12.05
2022-11-16T00:47:07.731Z,12.11
2022-11-16T00:49:34.479Z,12.23
2022-11-16T00:52:01.137Z,12.30
2022-11-16T00:54:27.849Z,12.24
2022-11-16T00:56:55.271Z,12.16
2022-11-16T00:59:22.823Z,12.17
2022-11-16T01:01:52.305Z,12.23
2022-11-16T01:04:19.093Z,12.29
2022-11-16T01:06:45.922Z,12.31
2022-11-16T01:09:12.560Z,12.24
2022-11-16T01:11:57.686Z,12.40
2022-11-16T01:14:24.339Z,12.28
2022-11-16T01:16:51.172Z,12.44
2022-11-16T01:19:17.811Z,12.24
2022-11-16T01:21:47.773Z,12.20
2022-11-16T01:24:17.177Z,12.20
2022-11-16T01:26:43.755Z,12.33
2022-11-16T01:29:10.426Z,12.35
2022-11-16T01:31:40.940Z,12.38
2022-11-16T01:34:07.747Z,12.41
2022-11-16T01:36:36.681Z,12.45
2022-11-16T01:39:05.223Z,12.52
2022-11-16T01:41:42.275Z,12.53
2022-11-16T01:44:15.055Z,12.60
2022-11-16T01:46:53.916Z,12.73
2022-11-16T01:49:24.520Z,12.78
2022-11-16T01:52:01.182Z,12.83
2022-11-16T01:54:33.149Z,12.89
2022-11-16T01:57:05.081Z,12.77
2022-11-16T01:59:41.199Z,12.98
2022-11-16T02:02:14.346Z,12.73
2022-11-16T02:04:41.100Z,12.65
2022-11-16T02:07:55.905Z,12.58
2022-11-16T02:11:00.972Z,12.32
2022-11-16T02:13:51.420Z,12.45
2022-11-16T02:16:24.220Z,12.49
2022-11-16T02:19:19.779Z,12.41
2022-11-16T02:21:56.025Z,12.57
2022-11-16T02:25:00.321Z,12.37
2022-11-16T02:27:56.231Z,12.28
2022-11-16T02:30:23.584Z,12.36
2022-11-16T02:33:09.113Z,12.44
2022-11-16T02:35:41.333Z,12.41
2022-11-16T02:38:21.843Z,12.19
2022-11-16T02:40:52.994Z,12.14
2022-11-16T02:43:30.483Z,12.17
2022-11-16T02:46:01.265Z,12.22
2022-11-16T02:48:35.951Z,12.31
2022-11-16T02:51:03.246Z,12.25
2022-11-16T02:53:33.646Z,12.25
2022-11-16T02:56:00.823Z,12.38
2022-11-16T02:58:27.669Z,12.61
2022-11-16T03:01:05.042Z,12.55
2022-11-16T03:03:39.830Z,12.49
2022-11-16T03:06:12.820Z,12.66
2022-11-16T03:08:43.085Z,12.76
2022-11-16T03:11:30.170Z,12.64
2022-11-16T03:14:06.748Z,12.85
2022-11-16T03:16:36.963Z,12.52
2022-11-16T03:19:12.221Z,12.57
2022-11-16T03:22:02.674Z,12.66
2022-11-16T03:24:29.639Z,12.74
2022-11-16T03:27:11.336Z,12.59
2022-11-16T03:30:12.837Z,12.37
2022-11-16T03:33:03.120Z,12.48
2022-11-16T03:35:38.775Z,12.31
2022-11-16T03:38:06.696Z,12.38
2022-11-16T03:40:34.511Z,12.42
2022-11-16T03:43:03.723Z,12.46
2022-11-16T03:45:31.414Z,12.33
2022-11-16T03:47:58.132Z,12.39
2022-11-16T03:50:32.960Z,12.27
2022-11-16T03:53:04.643Z,12.25
2022-11-16T03:55:32.625Z,12.28
2022-11-16T03:57:59.331Z,12.34
2022-11-16T04:00:25.998Z,12.37
2022-11-16T04:02:53.103Z,12.32
2022-11-16T04:05:40.254Z,12.38
2022-11-16T04:08:33.220Z,12.52
2022-11-16T04:11:18.601Z,12.73
2022-11-16T04:14:09.061Z,12.54
2022-11-16T04:16:57.014Z,12.52
2022-11-16T04:19:42.459Z,12.72
2022-11-16T04:22:38.342Z,12.74
2022-11-16T04:25:09.876Z,12.82
2022-11-16T04:27:55.075Z,12.55
2022-11-16T04:30:21.865Z,12.57
2022-11-16T04:33:07.867Z,12.53
2022-11-16T04:35:53.843Z,12.61
2022-11-16T04:38:20.695Z,12.57
2022-11-16T04:40:47.951Z,12.47
2022-11-16T04:43:14.760Z,12.60
2022-11-16T04:46:02.199Z,12.61
2022-11-16T04:48:39.328Z,12.81
2022-11-16T04:51:06.392Z,12.66
2022-11-16T04:53:33.870Z,12.57
2022-11-16T04:56:08.388Z,12.32
2022-11-16T04:58:35.378Z,12.36
2022-11-16T05:01:02.662Z,12.52
2022-11-16T05:03:29.549Z,12.57
2022-11-16T05:05:56.323Z,12.42
2022-11-16T05:08:23.262Z,12.64
2022-11-16T05:10:52.125Z,12.42
2022-11-16T05:13:19.563Z,12.36
2022-11-16T05:15:46.765Z,12.33
2022-11-16T05:18:13.599Z,12.46
2022-11-16T05:20:58.938Z,12.38
2022-11-16T05:23:44.980Z,12.55
2022-11-16T05:26:14.754Z,12.47
2022-11-16T05:28:41.431Z,12.47
2022-11-16T05:31:10.305Z,12.53
2022-11-16T05:33:36.949Z,12.57
2022-11-16T05:36:04.264Z,12.73
2022-11-16T05:38:31.373Z,12.65
2022-11-16T05:41:00.096Z,12.53
2022-11-16T05:43:29.446Z,12.53
2022-11-16T05:46:04.580Z,12.34
2022-11-16T05:48:48.381Z,12.35
2022-11-16T05:51:15.372Z,12.21
2022-11-16T05:53:44.160Z,12.36
2022-11-16T05:56:15.049Z,12.46
2022-11-16T05:58:43.439Z,12.22
2022-11-16T06:01:10.362Z,12.32
2022-11-16T06:03:37.847Z,12.42
2022-11-16T06:06:05.697Z,12.34
2022-11-16T06:08:32.715Z,12.36
2022-11-16T06:11:04.472Z,12.25
2022-11-16T06:13:32.311Z,12.21
2022-11-16T06:16:01.818Z,12.22
2022-11-16T06:18:30.464Z,12.38
2022-11-16T06:20:58.194Z,12.38
2022-11-16T06:23:30.115Z,12.26
2022-11-16T06:25:59.710Z,12.26
2022-11-16T06:28:34.598Z,12.19
2022-11-16T06:31:01.667Z,11.94
2022-11-16T06:33:33.754Z,11.88
2022-11-16T06:36:03.760Z,11.91
2022-11-16T06:38:31.072Z,11.82
2022-11-16T06:40:59.281Z,11.88
2022-11-16T06:43:28.334Z,11.74
2022-11-16T06:45:57.757Z,11.70
2022-11-16T06:48:24.586Z,11.81
2022-11-16T06:50:52.178Z,11.80
2022-11-16T06:53:27.617Z,11.78
2022-11-16T06:56:00.717Z,11.87
2022-11-16T06:58:30.257Z,11.86
2022-11-16T07:00:57.486Z,11.90
2022-11-16T07:03:24.216Z,11.93
2022-11-16T07:05:51.036Z,11.91
2022-11-16T07:08:18.648Z,12.02
2022-11-16T07:10:45.353Z,12.22
2022-11-16T07:13:12.319Z,11.99
2022-11-16T07:15:39.433Z,12.05
2022-11-16T07:18:07.964Z,12.19
2022-11-16T07:20:38.047Z,11.96
2022-11-16T07:23:06.323Z,11.80
2022-11-16T07:25:35.015Z,11.73
2022-11-16T07:28:04.649Z,11.98
2022-11-16T07:30:31.419Z,11.87
2022-11-16T07:33:05.607Z,11.98
2022-11-16T07:35:55.275Z,12.10
2022-11-16T07:38:21.943Z,11.97
2022-11-16T07:40:48.580Z,11.91
2022-11-16T07:43:17.756Z,11.92
2022-11-16T07:49:10.956Z,11.84
2022-11-16T07:51:54.204Z,11.77
2022-11-16T07:54:34.250Z,11.72
2022-11-16T07:57:01.366Z,11.60
2022-11-16T07:59:28.710Z,11.66
2022-11-16T08:01:55.831Z,11.62
2022-11-16T08:04:22.763Z,11.59
2022-11-16T08:06:51.734Z,11.55
2022-11-16T08:09:19.872Z,11.57
2022-11-16T08:11:50.981Z,11.54
2022-11-16T08:14:19.252Z,11.62
2022-11-16T08:16:48.372Z,11.50
2022-11-16T08:19:15.967Z,11.58
2022-11-16T08:21:42.720Z,11.64
2022-11-16T08:24:09.680Z,11.56
2022-11-16T08:26:41.565Z,11.53
2022-11-16T08:29:11.727Z,11.58
2022-11-16T08:31:44.278Z,11.65
2022-11-16T08:34:16.996Z,11.62
2022-11-16T08:36:59.898Z,11.71
2022-11-16T08:39:36.389Z,11.68
2022-11-16T08:42:03.251Z,11.85
2022-11-16T08:44:29.976Z,11.90
2022-11-16T08:47:00.528Z,11.79
2022-11-16T08:49:34.982Z,11.84
2022-11-16T08:52:02.433Z,11.86
2022-11-16T08:54:31.248Z,11.85
2022-11-16T08:56:59.392Z,11.86
2022-11-16T08:59:27.550Z,11.93
2022-11-16T09:01:58.601Z,11.86
2022-11-16T09:04:25.391Z,11.88
2022-11-16T09:06:53.194Z,11.77
2022-11-16T09:09:24.064Z,11.80
2022-11-16T09:11:57.298Z,11.78
2022-11-16T09:14:32.517Z,11.95
2022-11-16T09:16:59.199Z,11.85
2022-11-16T09:19:25.809Z,11.67
2022-11-16T09:21:52.520Z,11.76
2022-11-16T09:24:19.168Z,11.68
2022-11-16T09:26:50.941Z,11.74
2022-11-16T09:29:19.880Z,11.76
2022-11-16T09:31:46.620Z,11.75
2022-11-16T09:34:13.204Z,11.87
2022-11-16T09:36:39.815Z,11.82
2022-11-16T09:42:01.652Z,11.91
2022-11-16T09:44:34.174Z,12.08
2022-11-16T09:47:01.473Z,12.23
2022-11-16T09:49:33.660Z,12.38
2022-11-16T09:52:03.213Z,12.37
2022-11-16T09:54:33.043Z,12.34
2022-11-16T09:57:01.973Z,12.33
2022-11-16T09:59:36.754Z,12.49
2022-11-16T10:02:33.937Z,12.64
2022-11-16T10:05:10.587Z,12.66
2022-11-16T10:07:41.753Z,12.64
2022-11-16T10:10:23.699Z,12.66
2022-11-16T10:13:11.920Z,12.79
2022-11-16T10:15:47.397Z,12.71
2022-11-16T10:18:17.016Z,12.75
2022-11-16T10:21:13.930Z,12.76
2022-11-16T10:23:58.782Z,12.88
2022-11-16T10:26:40.634Z,12.87
2022-11-16T10:29:25.328Z,13.06
2022-11-16T10:32:08.082Z,13.16
2022-11-16T10:34:48.517Z,12.98
2022-11-16T10:37:15.242Z,12.94
2022-11-16T10:39:42.923Z,12.72
2022-11-16T10:42:17.504Z,12.81
2022-11-16T10:44:46.784Z,12.57
2022-11-16T10:47:35.743Z,12.73
2022-11-16T10:50:27.245Z,12.80
2022-11-16T10:52:53.865Z,12.75
2022-11-16T10:55:21.984Z,12.86
2022-11-16T10:57:57.799Z,12.84
2022-11-16T11:00:42.720Z,12.78
2022-11-16T11:03:11.777Z,12.66
2022-11-16T11:05:48.617Z,12.48
2022-11-16T11:08:25.978Z,12.52
2022-11-16T11:11:03.182Z,12.60
2022-11-16T11:13:29.889Z,12.79
2022-11-16T11:16:17.442Z,12.73
2022-11-16T11:18:44.287Z,12.68
2022-11-16T11:21:19.341Z,12.67
2022-11-16T11:23:53.379Z,12.76
2022-11-16T11:26:34.669Z,12.66
2022-11-16T11:29:15.375Z,13.01
2022-11-16T11:31:48.365Z,12.73
2022-11-16T11:34:25.042Z,13.02
2022-11-16T11:37:03.449Z,12.81
2022-11-16T11:39:34.126Z,12.91
2022-11-16T11:42:03.695Z,12.72
2022-11-16T11:44:42.897Z,13.07
2022-11-16T11:51:00.330Z,13.32
2022-11-16T11:54:07.912Z,13.36
2022-11-16T11:56:37.739Z,13.88
2022-11-16T11:59:04.990Z,13.87
2022-11-16T12:01:55.262Z,13.81
2022-11-16T12:04:55.962Z,13.79
2022-11-16T12:07:38.625Z,13.76
2022-11-16T12:10:18.274Z,13.97
2022-11-16T12:13:17.745Z,13.87
2022-11-16T12:16:20.012Z,13.77
2022-11-16T12:18:55.688Z,13.87
2022-11-16T12:22:03.013Z,13.90
2022-11-16T12:24:54.782Z,13.62
2022-11-16T12:27:36.002Z,13.67
2022-11-16T12:30:07.822Z,13.52
2022-11-16T12:32:53.486Z,13.61
2022-11-16T12:35:32.986Z,13.53
2022-11-16T12:38:00.802Z,13.59
2022-11-16T12:40:58.697Z,13.58
2022-11-16T12:43:46.796Z,13.38
2022-11-16T12:46:34.785Z,13.52
2022-11-16T12:49:01.462Z,13.53
2022-11-16T12:51:52.885Z,13.50
2022-11-16T12:55:24.194Z,13.42
2022-11-16T12:57:48.483Z,13.62
2022-11-16T13:04:25.617Z,13.92
2022-11-16T13:07:11.149Z,13.94
2022-11-16T13:10:18.730Z,14.10
2022-11-16T13:13:21.837Z,14.06
2022-11-16T13:15:46.371Z,14.09
2022-11-16T13:18:17.204Z,14.24
2022-11-16T13:20:58.923Z,14.22
2022-11-16T13:23:32.164Z,14.12
2022-11-16T13:26:10.391Z,13.99
2022-11-16T13:28:51.412Z,13.96
2022-11-16T13:31:30.212Z,14.00
2022-11-16T13:34:02.129Z,13.98
2022-11-16T13:36:42.788Z,13.96
2022-11-16T13:39:22.198Z,13.87
2022-11-16T13:41:52.205Z,13.72
2022-11-16T13:44:23.024Z,13.76
2022-11-16T13:46:59.612Z,13.62
2022-11-16T13:49:40.966Z,13.55
2022-11-16T13:52:23.584Z,13.74
2022-11-16T13:54:55.714Z,13.69
2022-11-16T13:57:32.076Z,13.66
2022-11-16T14:00:11.634Z,13.60
2022-11-16T14:02:40.578Z,13.64
2022-11-16T14:05:12.565Z,13.45
2022-11-16T14:07:44.793Z,13.60
2022-11-16T14:10:12.343Z,13.56
2022-11-16T14:12:38.905Z,13.58
2022-11-16T14:15:17.623Z,13.67
2022-11-16T14:17:53.581Z,13.56
2022-11-16T14:20:52.515Z,13.45
2022-11-16T14:23:37.125Z,13.40
2022-11-16T14:26:33.131Z,13.46
2022-11-16T14:29:13.000Z,13.54
2022-11-16T14:31:56.775Z,13.44
2022-11-16T14:34:40.658Z,13.35
2022-11-16T14:37:13.385Z,13.32
2022-11-16T14:39:42.929Z,13.35
2022-11-16T14:42:25.455Z,13.48
2022-11-16T14:45:00.065Z,13.41
2022-11-16T14:47:28.925Z,13.38
2022-11-16T14:50:06.450Z,13.23
2022-11-16T14:52:45.157Z,13.40
2022-11-16T14:55:20.206Z,13.55
2022-11-16T14:57:48.909Z,13.29
2022-11-16T15:00:22.278Z,13.28
2022-11-16T15:03:02.277Z,13.26
2022-11-16T15:05:39.097Z,13.20
2022-11-16T15:08:15.753Z,13.01
2022-11-16T15:10:49.516Z,13.01
2022-11-16T15:13:21.059Z,12.95
2022-11-16T15:15:48.488Z,13.01
2022-11-16T15:18:20.730Z,12.97
2022-11-16T15:20:52.206Z,12.93
2022-11-16T15:23:20.293Z,13.01
2022-11-16T15:25:53.943Z,13.05
2022-11-16T15:28:28.877Z,12.98
2022-11-16T15:30:57.994Z,12.77
2022-11-16T15:33:38.048Z,12.74
2022-11-16T15:36:25.049Z,12.54
2022-11-16T15:38:55.084Z,12.51
2022-11-16T15:41:23.075Z,12.41
2022-11-16T15:44:13.150Z,12.52
2022-11-16T15:46:41.998Z,12.57
2022-11-16T15:49:33.682Z,12.40
2022-11-16T15:52:00.545Z,12.32
2022-11-16T15:54:55.366Z,12.22
2022-11-16T15:57:23.377Z,12.14
2022-11-16T15:59:54.540Z,12.30
2022-11-16T16:02:23.800Z,12.30
2022-11-16T16:04:50.683Z,12.17
2022-11-16T16:07:39.762Z,12.07
2022-11-16T16:10:19.927Z,12.03
2022-11-16T16:12:51.112Z,12.00
2022-11-16T16:15:26.250Z,12.05
2022-11-16T16:17:54.076Z,11.93
2022-11-16T16:20:22.693Z,11.87
2022-11-16T16:22:57.081Z,11.90
2022-11-16T16:25:34.887Z,11.84
2022-11-16T16:28:01.982Z,11.86
2022-11-16T16:30:29.524Z,11.63
2022-11-16T16:32:56.283Z,11.66
2022-11-16T16:35:24.246Z,11.57
2022-11-16T16:37:58.394Z,11.67
2022-11-16T16:40:25.173Z,11.79
2022-11-16T16:42:53.205Z,11.61
2022-11-16T16:45:41.403Z,11.73
2022-11-16T16:48:12.654Z,11.82
2022-11-16T16:50:40.851Z,11.81
2022-11-16T16:53:11.306Z,11.72
2022-11-16T16:55:37.963Z,11.59
2022-11-16T16:58:05.569Z,11.45
2022-11-16T17:00:32.593Z,11.18
2022-11-16T17:02:59.181Z,11.21
2022-11-16T17:05:26.466Z,11.06
2022-11-16T17:07:56.284Z,11.25
2022-11-16T17:10:23.574Z,11.36
2022-11-16T17:12:53.390Z,11.15
2022-11-16T17:15:19.980Z,11.02
2022-11-16T17:17:46.710Z,10.81
2022-11-16T17:20:13.819Z,10.97
2022-11-16T17:22:41.801Z,10.90
2022-11-16T17:25:09.392Z,10.91
2022-11-16T17:27:36.054Z,10.82
2022-11-16T17:30:03.132Z,11.05
2022-11-16T17:32:30.136Z,10.91
2022-11-16T17:34:56.775Z,10.59
2022-11-16T17:37:23.330Z,10.63
2022-11-16T17:39:49.925Z,10.62
2022-11-16T17:42:16.585Z,10.88
2022-11-16T17:44:43.201Z,10.92
2022-11-16T17:47:09.875Z,10.77
2022-11-16T17:49:36.524Z,10.78
2022-11-16T17:52:04.477Z,10.78
2022-11-16T17:54:31.346Z,10.90
2022-11-16T17:56:58.078Z,10.89
2022-11-16T17:59:29.240Z,10.96
2022-11-16T18:01:57.843Z,10.86
2022-11-16T18:04:24.621Z,10.81
2022-11-16T18:06:51.462Z,10.74
2022-11-16T18:09:18.935Z,10.86
2022-11-16T18:11:45.835Z,10.94
2022-11-16T18:14:12.413Z,10.77
2022-11-16T18:16:42.286Z,10.80
2022-11-16T18:19:09.916Z,11.00
2022-11-16T18:21:40.476Z,11.02
2022-11-16T18:24:07.404Z,10.85
2022-11-16T18:26:34.269Z,10.89
2022-11-16T18:29:00.877Z,10.99
2022-11-16T18:31:27.992Z,11.50
2022-11-16T18:33:56.498Z,11.55
2022-11-16T18:36:23.095Z,11.44
2022-11-16T18:38:50.597Z,11.26
2022-11-16T18:41:23.614Z,11.13
2022-11-16T18:43:55.367Z,11.37
2022-11-16T18:46:25.021Z,11.37
2022-11-16T18:48:51.983Z,11.42
2022-11-16T18:51:19.713Z,11.39
2022-11-16T18:53:46.505Z,11.48
2022-11-16T18:56:13.303Z,11.15
2022-11-16T18:58:55.380Z,11.01
2022-11-16T19:01:24.261Z,11.01
2022-11-16T19:03:52.083Z,11.08
2022-11-16T19:06:19.168Z,11.00
2022-11-16T19:08:50.400Z,11.19
2022-11-16T19:11:19.095Z,11.10
2022-11-16T19:13:46.909Z,11.03
2022-11-16T19:16:13.837Z,10.73
2022-11-16T19:18:40.598Z,10.91
2022-11-16T19:21:12.740Z,10.95
2022-11-16T19:23:42.728Z,11.26
2022-11-16T19:26:10.377Z,11.33
2022-11-16T19:28:38.188Z,10.91
2022-11-16T19:31:10.144Z,11.05
2022-11-16T19:33:37.352Z,11.11
2022-11-16T19:36:09.192Z,11.22
2022-11-16T19:38:35.981Z,11.06
2022-11-16T19:41:09.357Z,10.84
2022-11-16T19:43:36.260Z,11.03
2022-11-16T19:46:05.167Z,11.06
2022-11-16T19:48:34.903Z,11.12
2022-11-16T19:51:09.750Z,11.25
2022-11-16T19:53:36.927Z,11.28
2022-11-16T19:56:04.841Z,11.39
2022-11-16T19:58:32.915Z,11.11
2022-11-16T20:01:06.780Z,11.27
2022-11-16T20:03:34.090Z,11.27
2022-11-16T20:06:09.598Z,11.51
2022-11-16T20:08:37.144Z,11.30
2022-11-16T20:11:31.234Z,11.40
2022-11-16T20:13:58.603Z,11.36
2022-11-16T20:16:35.406Z,11.27
2022-11-16T20:19:05.663Z,11.26
2022-11-16T20:21:40.428Z,11.35
2022-11-16T20:24:10.139Z,11.37
2022-11-16T20:26:37.322Z,11.44
2022-11-16T20:29:04.051Z,11.23
2022-11-16T20:31:32.073Z,11.45
2022-11-16T20:34:00.708Z,11.63
2022-11-16T20:36:29.424Z,11.50
2022-11-16T20:38:57.237Z,11.37
2022-11-16T20:41:25.503Z,11.43
2022-11-16T20:43:56.843Z,11.41
2022-11-16T20:46:30.818Z,11.39
2022-11-16T20:48:59.478Z,11.45
2022-11-16T20:51:26.788Z,11.45
2022-11-16T20:53:53.916Z,11.49
2022-11-16T20:56:21.388Z,11.53
2022-11-16T20:58:49.108Z,11.52
2022-11-16T21:01:19.409Z,11.51
2022-11-16T21:03:46.728Z,11.39
2022-11-16T21:06:14.085Z,11.40
2022-11-16T21:08:41.502Z,11.40
2022-11-16T21:11:16.329Z,11.51
2022-11-16T21:14:03.581Z,11.40
2022-11-16T21:16:30.995Z,11.40
2022-11-16T21:18:57.830Z,11.43
2022-11-16T21:21:25.102Z,11.55
2022-11-16T21:23:52.287Z,11.62
2022-11-16T21:26:21.007Z,11.48
2022-11-16T21:28:47.818Z,11.56
2022-11-16T21:31:18.091Z,11.50
2022-11-16T21:33:45.456Z,11.32
2022-11-16T21:36:14.178Z,11.14
2022-11-16T21:38:40.883Z,11.31
2022-11-16T21:41:09.066Z,11.35
2022-11-16T21:43:36.649Z,11.29
2022-11-16T21:46:10.406Z,11.43
2022-11-16T21:48:37.726Z,11.41
2022-11-16T21:51:12.277Z,11.22
2022-11-16T21:53:39.263Z,11.30
2022-11-16T21:56:07.679Z,11.31
2022-11-16T21:58:34.321Z,11.46
2022-11-16T22:01:02.224Z,11.31
2022-11-16T22:03:30.618Z,11.30
2022-11-16T22:06:20.923Z,11.18
2022-11-16T22:08:48.524Z,11.42
2022-11-16T22:11:15.700Z,11.16
2022-11-16T22:13:43.113Z,11.52
2022-11-16T22:16:11.735Z,11.33
2022-11-16T22:18:38.780Z,11.45
2022-11-16T22:21:05.892Z,11.45
2022-11-16T22:23:32.931Z,11.22
2022-11-16T22:26:04.556Z,11.28
2022-11-16T22:28:32.727Z,11.50
2022-11-16T22:31:04.216Z,11.52
2022-11-16T22:33:31.913Z,11.66
2022-11-16T22:35:59.000Z,11.60
2022-11-16T22:38:26.020Z,11.69
2022-11-16T22:40:54.081Z,11.53
2022-11-16T22:43:22.152Z,11.59
2022-11-16T22:45:49.204Z,11.53
2022-11-16T22:48:15.993Z,11.75
2022-11-16T22:50:42.767Z,11.67
2022-11-16T22:53:10.046Z,11.73
2022-11-16T22:55:41.209Z,11.61
2022-11-16T22:58:08.093Z,11.88
2022-11-16T23:00:40.745Z,11.85
2022-11-16T23:03:08.761Z,11.61
2022-11-16T23:05:35.528Z,11.64
2022-11-16T23:08:02.417Z,11.46
2022-11-16T23:10:29.058Z,11.66
2022-11-16T23:13:14.546Z,11.53
2022-11-16T23:15:50.388Z,11.42
2022-11-16T23:18:19.537Z,11.44
2022-11-16T23:21:04.816Z,11.41
2022-11-16T23:23:51.414Z,11.25
2022-11-16T23:26:41.303Z,11.30
2022-11-16T23:29:09.475Z,11.12
2022-11-16T23:31:37.159Z,11.31
2022-11-16T23:34:04.057Z,11.45
2022-11-16T23:36:30.717Z,11.41
2022-11-16T23:38:57.529Z,11.29
2022-11-16T23:41:42.848Z,11.46
2022-11-16T23:44:20.434Z,11.26
2022-11-16T23:46:57.565Z,11.15
2022-11-16T23:49:24.333Z,11.13
2022-11-16T23:51:50.922Z,11.21
2022-11-16T23:54:17.567Z,11.21
2022-11-16T23:56:44.100Z,11.31
2022-11-16T23:59:10.673Z,11.79
